createdAt,value
2023-04-23T00:01:34.702Z,9.50
2023-04-23T00:04:01.142Z,7.18
2023-04-23T00:06:28.080Z,9.07
2023-04-23T00:08:54.662Z,10.63
2023-04-23T00:11:21.016Z,10.00
2023-04-23T00:13:48.707Z,9.40
2023-04-23T00:16:15.234Z,9.90
2023-04-23T00:18:40.997Z,7.40
2023-04-23T00:21:08.548Z,8.18
2023-04-23T00:23:34.312Z,10.63
2023-04-23T00:26:00.157Z,8.75
2023-04-23T00:28:25.878Z,12.65
2023-04-23T00:30:51.606Z,10.20
2023-04-23T00:33:17.439Z,8.10
2023-04-23T00:35:43.258Z,17.05
2023-04-23T00:38:09.151Z,8.48
2023-04-23T00:40:35.371Z,8.07
2023-04-23T00:43:01.637Z,11.52
2023-04-23T00:45:27.414Z,9.52
2023-04-23T00:47:53.324Z,12.30
2023-04-23T00:50:20.352Z,8.90
2023-04-23T00:52:46.068Z,12.48
2023-04-23T00:55:11.804Z,9.68
2023-04-23T00:57:38.194Z,12.20
2023-04-23T01:00:07.256Z,11.25
2023-04-23T01:02:34.011Z,7.28
2023-04-23T01:05:00.975Z,9.82
2023-04-23T01:07:26.997Z,10.05
2023-04-23T01:09:53.221Z,7.65
2023-04-23T01:12:19.010Z,7.63
2023-04-23T01:14:45.087Z,8.75
2023-04-23T01:17:13.821Z,8.23
2023-04-23T01:19:39.746Z,8.40
2023-04-23T01:22:09.231Z,7.38
2023-04-23T01:24:35.973Z,9.85
2023-04-23T01:27:01.810Z,8.63
2023-04-23T01:29:28.177Z,8.73
2023-04-23T01:31:54.106Z,10.00
2023-04-23T01:34:20.389Z,10.00
2023-04-23T01:36:47.071Z,7.55
2023-04-23T01:39:13.162Z,7.20
2023-04-23T01:41:39.355Z,9.77
2023-04-23T01:44:05.161Z,7.15
2023-04-23T01:46:31.343Z,9.02
2023-04-23T01:48:57.195Z,7.60
2023-04-23T01:51:25.051Z,6.93
2023-04-23T01:53:50.942Z,9.77
2023-04-23T01:56:18.922Z,9.93
2023-04-23T01:58:44.659Z,10.77
2023-04-23T02:01:10.968Z,9.02
2023-04-23T02:03:36.865Z,9.90
2023-04-23T02:06:04.362Z,8.15
2023-04-23T02:08:30.374Z,12.07
2023-04-23T02:10:56.578Z,9.25
2023-04-23T02:13:22.448Z,9.60
2023-04-23T02:15:48.447Z,10.10
2023-04-23T02:18:14.239Z,7.53
2023-04-23T02:20:40.884Z,9.65
2023-04-23T02:23:07.190Z,9.68
2023-04-23T02:25:33.191Z,9.48
2023-04-23T02:28:00.880Z,9.55
2023-04-23T02:30:26.926Z,13.18
2023-04-23T02:32:52.856Z,10.82
2023-04-23T02:35:18.691Z,7.38
2023-04-23T02:37:44.572Z,9.57
2023-04-23T02:40:10.529Z,6.75
2023-04-23T02:42:36.253Z,9.18
2023-04-23T02:45:02.623Z,10.23
2023-04-23T02:47:29.538Z,9.60
2023-04-23T02:49:55.369Z,10.07
2023-04-23T02:52:21.162Z,7.63
2023-04-23T02:54:46.884Z,8.45
2023-04-23T02:57:14.775Z,6.75
2023-04-23T02:59:40.530Z,6.78
2023-04-23T03:02:06.382Z,6.15
2023-04-23T03:04:32.568Z,9.23
2023-04-23T03:06:58.385Z,9.02
2023-04-23T03:09:24.155Z,8.85
2023-04-23T03:11:50.399Z,7.45
2023-04-23T03:14:16.128Z,7.10
2023-04-23T03:16:41.971Z,16.35
2023-04-23T03:19:07.746Z,10.77
2023-04-23T03:21:33.457Z,7.10
2023-04-23T03:23:59.192Z,9.38
2023-04-23T03:26:24.990Z,8.00
2023-04-23T03:28:50.744Z,12.55
2023-04-23T03:31:16.698Z,9.32
2023-04-23T03:33:42.554Z,7.55
2023-04-23T03:36:08.267Z,6.95
2023-04-23T03:38:34.028Z,6.15
2023-04-23T03:40:59.854Z,7.38
2023-04-23T03:43:25.620Z,10.30
2023-04-23T03:45:51.535Z,7.88
2023-04-23T03:48:17.271Z,8.38
2023-04-23T03:50:43.066Z,13.50
2023-04-23T03:53:09.512Z,8.80
2023-04-23T03:55:35.253Z,7.35
2023-04-23T03:58:02.383Z,7.97
2023-04-23T04:00:28.176Z,7.70
2023-04-23T04:02:54.563Z,8.98
2023-04-23T04:05:21.248Z,9.20
2023-04-23T04:07:47.286Z,8.02
2023-04-23T04:10:13.059Z,7.80
2023-04-23T04:12:39.196Z,14.90
2023-04-23T04:15:05.494Z,10.13
2023-04-23T04:17:31.378Z,10.35
2023-04-23T04:19:57.265Z,8.57
2023-04-23T04:22:23.662Z,7.70
2023-04-23T04:24:51.451Z,10.43
2023-04-23T04:27:17.418Z,8.40
2023-04-23T04:29:43.249Z,9.00
2023-04-23T04:32:09.663Z,9.98
2023-04-23T04:34:38.543Z,11.68
2023-04-23T04:37:04.648Z,8.25
2023-04-23T04:39:30.458Z,10.13
2023-04-23T04:41:56.966Z,10.63
2023-04-23T04:44:22.840Z,9.77
2023-04-23T04:46:48.606Z,8.68
2023-04-23T04:49:14.360Z,11.20
2023-04-23T04:51:40.628Z,14.20
2023-04-23T04:54:07.069Z,12.18
2023-04-23T04:56:33.708Z,9.75
2023-04-23T04:59:00.060Z,11.43
2023-04-23T05:01:26.702Z,9.77
2023-04-23T05:03:53.296Z,13.50
2023-04-23T05:06:19.192Z,10.68
2023-04-23T05:08:47.541Z,8.32
2023-04-23T05:11:16.818Z,6.85
2023-04-23T05:13:43.308Z,9.20
2023-04-23T05:16:10.269Z,10.10
2023-04-23T05:18:36.020Z,7.40
2023-04-23T05:21:01.883Z,8.00
2023-04-23T05:23:27.672Z,10.38
2023-04-23T05:25:55.413Z,9.30
2023-04-23T05:28:21.230Z,10.50
2023-04-23T05:30:47.027Z,10.82
2023-04-23T05:33:12.807Z,9.38
2023-04-23T05:35:38.582Z,7.53
2023-04-23T05:38:05.773Z,8.07
2023-04-23T05:40:33.445Z,9.80
2023-04-23T05:42:59.305Z,7.53
2023-04-23T05:45:30.379Z,9.65
2023-04-23T05:47:56.114Z,8.07
2023-04-23T05:50:22.084Z,7.07
2023-04-23T05:52:47.863Z,9.25
2023-04-23T05:55:17.757Z,8.00
2023-04-23T05:57:43.614Z,10.80
2023-04-23T06:00:09.682Z,10.23
2023-04-23T06:02:35.899Z,8.82
2023-04-23T06:05:02.152Z,8.05
2023-04-23T06:07:28.028Z,7.22
2023-04-23T06:09:53.799Z,8.43
2023-04-23T06:12:19.614Z,7.28
2023-04-23T06:14:57.615Z,7.95
2023-04-23T06:17:23.948Z,5.93
2023-04-23T06:19:50.562Z,6.75
2023-04-23T06:22:16.309Z,9.30
2023-04-23T06:24:42.375Z,9.60
2023-04-23T06:27:08.392Z,6.32
2023-04-23T06:29:34.148Z,9.90
2023-04-23T06:32:02.854Z,7.05
2023-04-23T06:34:28.792Z,6.57
2023-04-23T06:36:54.580Z,7.97
2023-04-23T06:39:20.676Z,8.63
2023-04-23T06:41:46.747Z,8.68
2023-04-23T06:44:12.706Z,8.32
2023-04-23T06:46:42.842Z,7.15
2023-04-23T06:49:08.620Z,11.77
2023-04-23T06:51:34.473Z,9.50
2023-04-23T06:54:00.556Z,8.45
2023-04-23T06:56:29.347Z,11.88
2023-04-23T06:58:55.172Z,9.50
2023-04-23T07:01:21.149Z,9.80
2023-04-23T07:03:48.579Z,8.10
2023-04-23T07:06:17.584Z,9.00
2023-04-23T07:08:44.563Z,7.32
2023-04-23T07:11:10.838Z,6.40
2023-04-23T07:13:37.300Z,8.35
2023-04-23T07:16:09.846Z,7.85
2023-04-23T07:18:35.891Z,9.77
2023-04-23T07:21:02.305Z,7.68
2023-04-23T07:23:28.565Z,8.18
2023-04-23T07:25:54.420Z,7.88
2023-04-23T07:28:20.595Z,8.45
2023-04-23T07:30:46.485Z,8.60
2023-04-23T07:33:12.764Z,9.10
2023-04-23T07:35:38.816Z,7.28
2023-04-23T07:38:05.157Z,9.43
2023-04-23T07:40:31.025Z,7.88
2023-04-23T07:42:58.637Z,7.72
2023-04-23T07:45:39.764Z,6.20
2023-04-23T07:48:06.093Z,7.82
2023-04-23T07:50:32.157Z,15.57
2023-04-23T07:52:57.977Z,8.43
2023-04-23T07:55:24.379Z,8.20
2023-04-23T07:57:50.204Z,7.35
2023-04-23T08:00:16.140Z,9.13
2023-04-23T08:02:42.259Z,7.38
2023-04-23T08:05:09.028Z,7.78
2023-04-23T08:07:35.189Z,7.57
2023-04-23T08:10:05.962Z,8.27
2023-04-23T08:12:34.154Z,6.78
2023-04-23T08:15:07.157Z,11.20
2023-04-23T08:17:33.457Z,7.88
2023-04-23T08:19:59.310Z,8.15
2023-04-23T08:22:25.079Z,7.97
2023-04-23T08:24:50.878Z,6.95
2023-04-23T08:27:16.875Z,6.10
2023-04-23T08:29:42.863Z,8.35
2023-04-23T08:32:09.163Z,6.30
2023-04-23T08:34:35.929Z,6.97
2023-04-23T08:37:01.778Z,5.97
2023-04-23T08:39:27.684Z,7.38
2023-04-23T08:41:54.905Z,9.02
2023-04-23T08:44:25.097Z,6.75
2023-04-23T08:46:52.999Z,6.90
2023-04-23T08:49:19.693Z,6.55
2023-04-23T08:51:49.830Z,5.78
2023-04-23T08:54:18.578Z,6.40
2023-04-23T08:56:46.737Z,6.88
2023-04-23T08:59:12.814Z,7.07
2023-04-23T09:01:38.698Z,6.93
2023-04-23T09:04:04.838Z,6.88
2023-04-23T09:06:33.903Z,5.53
2023-04-23T09:09:00.599Z,6.68
2023-04-23T09:11:28.361Z,5.93
2023-04-23T09:13:55.757Z,4.90
2023-04-23T09:16:21.935Z,5.85
2023-04-23T09:18:49.324Z,4.53
2023-04-23T09:21:15.294Z,3.53
2023-04-23T09:23:43.130Z,5.85
2023-04-23T09:26:09.827Z,4.35
2023-04-23T09:28:36.283Z,4.63
2023-04-23T09:31:05.028Z,5.13
2023-04-23T09:33:32.407Z,6.63
2023-04-23T09:35:58.168Z,6.00
2023-04-23T09:38:24.065Z,6.65
2023-04-23T09:40:50.121Z,6.53
2023-04-23T09:43:16.066Z,6.55
2023-04-23T09:46:03.999Z,6.80
2023-04-23T09:48:39.914Z,7.88
2023-04-23T09:51:05.764Z,8.43
2023-04-23T09:53:40.381Z,9.77
2023-04-23T09:56:06.522Z,10.93
2023-04-23T09:58:32.516Z,9.95
2023-04-23T10:01:07.153Z,10.38
2023-04-23T10:03:33.094Z,9.68
2023-04-23T10:06:01.798Z,11.23
2023-04-23T10:08:28.457Z,10.48
2023-04-23T10:11:03.114Z,11.30
2023-04-23T10:13:37.257Z,10.70
2023-04-23T10:16:20.612Z,11.23
2023-04-23T10:18:48.892Z,13.75
2023-04-23T10:21:15.722Z,10.75
2023-04-23T10:23:43.690Z,12.73
2023-04-23T10:26:11.194Z,12.13
2023-04-23T10:28:38.724Z,10.77
2023-04-23T10:31:05.666Z,10.02
2023-04-23T10:33:39.974Z,9.73
2023-04-23T10:36:11.955Z,10.15
2023-04-23T10:38:42.967Z,9.13
2023-04-23T10:41:21.635Z,6.82
2023-04-23T10:43:47.561Z,7.25
2023-04-23T10:46:38.679Z,9.15
2023-04-23T10:49:10.180Z,9.60
2023-04-23T10:54:05.569Z,7.50
2023-04-23T10:56:31.694Z,5.00
2023-04-23T10:58:57.700Z,6.95
2023-04-23T11:01:25.260Z,6.82
2023-04-23T11:03:51.807Z,5.90
2023-04-23T11:06:37.370Z,3.67
2023-04-23T11:09:23.098Z,4.20
2023-04-23T11:11:49.206Z,4.55
2023-04-23T11:14:15.321Z,5.15
2023-04-23T11:16:43.163Z,4.47
2023-04-23T11:19:13.038Z,4.60
2023-04-23T11:22:00.544Z,3.72
2023-04-23T11:24:26.958Z,5.07
2023-04-23T11:26:58.388Z,4.60
2023-04-23T11:29:25.349Z,3.45
2023-04-23T11:32:01.826Z,4.70
2023-04-23T11:34:29.551Z,3.22
2023-04-23T11:36:57.870Z,5.20
2023-04-23T11:39:24.184Z,3.38
2023-04-23T11:41:51.831Z,3.90
2023-04-23T11:44:18.852Z,3.85
2023-04-23T11:46:51.034Z,5.28
2023-04-23T11:49:18.092Z,4.03
2023-04-23T11:51:44.422Z,3.65
2023-04-23T11:54:12.900Z,3.88
2023-04-23T11:56:39.018Z,8.05
2023-04-23T11:59:05.185Z,4.50
2023-04-23T12:01:40.788Z,7.05
2023-04-23T12:04:12.939Z,6.13
2023-04-23T12:06:43.523Z,5.07
2023-04-23T12:09:11.232Z,5.28
2023-04-23T12:11:40.318Z,5.60
2023-04-23T12:14:07.943Z,5.88
2023-04-23T12:16:35.214Z,7.05
2023-04-23T12:19:01.019Z,5.78
2023-04-23T12:21:29.312Z,5.88
2023-04-23T12:23:55.825Z,7.60
2023-04-23T12:26:24.094Z,5.00
2023-04-23T12:28:51.150Z,5.40
2023-04-23T12:31:21.706Z,6.78
2023-04-23T12:36:16.986Z,4.60
2023-04-23T12:38:43.082Z,4.35
2023-04-23T12:41:09.014Z,4.15
2023-04-23T12:43:35.081Z,3.92
2023-04-23T12:46:04.127Z,4.00
2023-04-23T12:48:30.092Z,3.40
2023-04-23T12:50:55.960Z,4.70
2023-04-23T12:53:21.806Z,3.22
2023-04-23T12:55:49.534Z,3.80
2023-04-23T12:58:15.580Z,4.72
2023-04-23T13:00:41.494Z,3.65
2023-04-23T13:03:07.995Z,2.92
2023-04-23T13:05:33.852Z,4.57
2023-04-23T13:07:59.722Z,4.13
2023-04-23T13:10:25.761Z,4.55
2023-04-23T13:12:51.697Z,3.45
2023-04-23T13:15:33.672Z,3.72
2023-04-23T13:17:59.507Z,5.07
2023-04-23T13:20:25.599Z,4.07
2023-04-23T13:22:51.468Z,3.40
2023-04-23T13:25:17.230Z,3.38
2023-04-23T13:27:43.511Z,3.95
2023-04-23T13:30:09.614Z,3.35
2023-04-23T13:32:36.220Z,3.55
2023-04-23T13:35:04.379Z,3.63
2023-04-23T13:37:30.983Z,3.72
2023-04-23T13:39:56.930Z,4.40
2023-04-23T13:42:22.862Z,3.00
2023-04-23T13:44:52.293Z,2.90
2023-04-23T13:47:18.117Z,3.00
2023-04-23T13:49:44.234Z,2.67
2023-04-23T13:52:10.194Z,3.22
2023-04-23T13:54:36.286Z,2.53
2023-04-23T13:57:02.408Z,3.58
2023-04-23T13:59:28.536Z,2.75
2023-04-23T14:01:54.557Z,2.58
2023-04-23T14:04:22.143Z,2.40
2023-04-23T14:06:47.914Z,4.57
2023-04-23T14:09:14.164Z,2.28
2023-04-23T14:11:40.783Z,2.60
2023-04-23T14:14:09.483Z,2.42
2023-04-23T14:16:40.774Z,3.05
2023-04-23T14:19:06.575Z,1.80
2023-04-23T14:21:35.222Z,3.38
2023-04-23T14:24:02.779Z,2.00
2023-04-23T14:26:47.322Z,3.33
2023-04-23T14:29:33.433Z,1.98
2023-04-23T14:31:59.750Z,1.73
2023-04-23T14:34:25.756Z,2.20
2023-04-23T14:36:52.385Z,3.10
2023-04-23T14:39:18.478Z,2.28
2023-04-23T14:41:44.853Z,4.05
2023-04-23T14:44:10.776Z,1.88
2023-04-23T14:46:49.298Z,1.80
2023-04-23T14:49:15.371Z,3.70
2023-04-23T14:51:41.639Z,1.70
2023-04-23T14:54:09.534Z,1.77
2023-04-23T14:56:36.665Z,2.40
2023-04-23T14:59:04.169Z,2.67
2023-04-23T15:01:30.613Z,1.80
2023-04-23T15:03:56.653Z,3.35
2023-04-23T15:06:22.603Z,3.40
2023-04-23T15:08:49.025Z,5.47
2023-04-23T15:11:15.256Z,2.22
2023-04-23T15:13:48.923Z,2.00
2023-04-23T15:16:47.665Z,2.83
2023-04-23T15:19:17.083Z,2.67
2023-04-23T15:21:43.251Z,2.40
2023-04-23T15:24:09.170Z,2.50
2023-04-23T15:26:36.320Z,2.70
2023-04-23T15:29:03.646Z,1.55
2023-04-23T15:31:29.814Z,2.30
2023-04-23T15:33:55.677Z,1.55
2023-04-23T15:36:21.534Z,1.38
2023-04-23T15:38:48.407Z,3.70
2023-04-23T15:41:14.375Z,2.30
2023-04-23T15:43:40.175Z,1.92
2023-04-23T15:46:06.742Z,2.60
2023-04-23T15:48:32.988Z,2.50
2023-04-23T15:50:59.000Z,2.70
2023-04-23T15:53:26.661Z,3.22
2023-04-23T15:55:52.475Z,2.05
2023-04-23T15:58:19.158Z,1.35
2023-04-23T16:00:45.158Z,2.13
2023-04-23T16:03:12.638Z,2.10
2023-04-23T16:05:38.993Z,2.40
2023-04-23T16:08:05.390Z,2.67
2023-04-23T16:10:33.774Z,2.88
2023-04-23T16:13:00.487Z,1.73
2023-04-23T16:15:51.975Z,2.05
2023-04-23T16:18:17.843Z,1.95
2023-04-23T16:20:43.837Z,2.38
2023-04-23T16:23:09.830Z,1.73
2023-04-23T16:25:36.819Z,2.72
2023-04-23T16:28:04.088Z,1.33
2023-04-23T16:30:30.224Z,2.92
2023-04-23T16:32:58.734Z,2.03
2023-04-23T16:35:25.057Z,1.00
2023-04-23T16:37:51.697Z,2.05
2023-04-23T16:40:18.607Z,2.92
2023-04-23T16:42:44.647Z,3.78
2023-04-23T16:45:10.946Z,5.20
2023-04-23T16:47:37.312Z,3.67
2023-04-23T16:50:03.488Z,9.10
2023-04-23T16:52:29.525Z,4.75
2023-04-23T16:54:55.572Z,3.30
2023-04-23T16:57:22.108Z,3.10
2023-04-23T16:59:47.960Z,2.83
2023-04-23T17:02:13.802Z,4.22
2023-04-23T17:04:39.864Z,5.43
2023-04-23T17:07:06.910Z,3.40
2023-04-23T17:09:33.758Z,4.90
2023-04-23T17:11:59.987Z,3.90
2023-04-23T17:14:31.245Z,2.78
2023-04-23T17:16:57.074Z,3.85
2023-04-23T17:19:22.940Z,4.07
2023-04-23T17:21:49.892Z,4.45
2023-04-23T17:24:15.757Z,4.95
2023-04-23T17:26:41.706Z,10.00
2023-04-23T17:29:07.900Z,4.45
2023-04-23T17:31:35.822Z,3.95
2023-04-23T17:34:02.633Z,2.80
2023-04-23T17:36:29.452Z,4.85
2023-04-23T17:38:55.437Z,2.35
2023-04-23T17:41:22.165Z,4.47
2023-04-23T17:43:48.774Z,5.82
2023-04-23T17:46:15.890Z,3.67
2023-04-23T17:48:44.338Z,3.72
2023-04-23T17:51:10.449Z,3.72
2023-04-23T17:53:36.245Z,5.75
2023-04-23T17:56:02.850Z,4.95
2023-04-23T17:58:29.179Z,3.60
2023-04-23T18:00:55.298Z,7.65
2023-04-23T18:03:21.927Z,4.03
2023-04-23T18:05:48.065Z,6.50
2023-04-23T18:08:17.639Z,4.20
2023-04-23T18:10:45.219Z,6.28
2023-04-23T18:13:11.265Z,3.42
2023-04-23T18:15:55.776Z,2.47
2023-04-23T18:18:21.726Z,5.95
2023-04-23T18:20:48.563Z,5.88
2023-04-23T18:23:14.427Z,3.97
2023-04-23T18:25:41.179Z,4.78
2023-04-23T18:28:06.923Z,6.63
2023-04-23T18:30:32.862Z,4.43
2023-04-23T18:33:03.508Z,6.00
2023-04-23T18:38:01.765Z,4.25
2023-04-23T18:40:27.853Z,5.75
2023-04-23T18:42:53.969Z,6.13
2023-04-23T18:45:20.024Z,4.13
2023-04-23T18:48:03.025Z,10.32
2023-04-23T18:50:31.188Z,5.97
2023-04-23T18:52:57.002Z,7.82
2023-04-23T18:55:22.756Z,6.72
2023-04-23T18:57:48.537Z,4.68
2023-04-23T19:00:14.782Z,8.15
2023-04-23T19:02:40.875Z,5.10
2023-04-23T19:05:07.065Z,5.40
2023-04-23T19:07:36.452Z,4.60
2023-04-23T19:10:02.588Z,5.60
2023-04-23T19:12:29.161Z,8.85
2023-04-23T19:15:20.411Z,6.47
2023-04-23T19:17:46.507Z,3.75
2023-04-23T19:20:15.567Z,5.68
2023-04-23T19:22:42.308Z,5.05
2023-04-23T19:25:08.826Z,4.95
2023-04-23T19:27:36.253Z,6.43
2023-04-23T19:30:04.493Z,6.85
2023-04-23T19:32:35.245Z,8.05
2023-04-23T19:37:29.049Z,7.57
2023-04-23T19:39:57.797Z,7.65
2023-04-23T19:42:24.661Z,9.57
2023-04-23T19:45:07.412Z,6.63
2023-04-23T19:47:38.512Z,8.15
2023-04-23T19:50:06.252Z,6.82
2023-04-23T19:52:35.327Z,5.18
2023-04-23T19:55:01.476Z,7.45
2023-04-23T19:57:27.857Z,4.85
2023-04-23T19:59:53.708Z,6.82
2023-04-23T20:02:19.942Z,6.03
2023-04-23T20:07:27.236Z,7.00
2023-04-23T20:15:30.075Z,8.23
2023-04-23T20:17:57.094Z,10.38
2023-04-23T20:20:27.955Z,10.10
2023-04-23T20:22:54.579Z,7.60
2023-04-23T20:25:28.842Z,9.43
2023-04-23T20:27:55.709Z,6.25
2023-04-23T20:30:22.328Z,7.18
2023-04-23T20:32:48.478Z,7.38
2023-04-23T20:35:14.970Z,9.02
2023-04-23T20:37:44.498Z,9.77
2023-04-23T20:40:11.510Z,6.47
2023-04-23T20:42:38.710Z,7.38
2023-04-23T20:45:59.033Z,5.85
2023-04-23T20:48:27.067Z,6.05
2023-04-23T20:50:54.708Z,7.90
2023-04-23T20:53:22.685Z,5.95
2023-04-23T20:55:48.919Z,8.50
2023-04-23T20:58:14.965Z,6.07
2023-04-23T21:00:41.516Z,6.88
2023-04-23T21:03:07.654Z,6.95
2023-04-23T21:05:33.870Z,11.73
2023-04-23T21:08:00.262Z,7.15
2023-04-23T21:10:26.093Z,7.20
2023-04-23T21:12:52.055Z,8.25
2023-04-23T21:15:21.218Z,5.78
2023-04-23T21:17:47.560Z,7.28
2023-04-23T21:20:13.676Z,9.05
2023-04-23T21:22:39.830Z,8.35
2023-04-23T21:25:05.987Z,8.73
2023-04-23T21:27:36.405Z,9.73
2023-04-23T21:30:05.593Z,6.53
2023-04-23T21:32:31.721Z,7.07
2023-04-23T21:34:57.751Z,8.07
2023-04-23T21:37:23.535Z,8.27
2023-04-23T21:39:49.281Z,9.55
2023-04-23T21:42:15.055Z,7.15
2023-04-23T21:44:44.160Z,7.28
2023-04-23T21:47:10.150Z,6.82
2023-04-23T21:49:36.404Z,7.10
2023-04-23T21:52:02.153Z,7.95
2023-04-23T21:54:28.210Z,7.03
2023-04-23T21:56:54.033Z,6.55
2023-04-23T21:59:19.927Z,7.53
2023-04-23T22:01:45.684Z,8.35
2023-04-23T22:04:12.118Z,6.95
2023-04-23T22:06:37.896Z,6.10
2023-04-23T22:09:03.728Z,7.15
2023-04-23T22:11:30.601Z,6.78
2023-04-23T22:13:56.362Z,5.90
2023-04-23T22:16:28.517Z,7.72
2023-04-23T22:18:55.705Z,5.72
2023-04-23T22:21:21.555Z,7.15
2023-04-23T22:23:47.443Z,6.72
2023-04-23T22:26:13.280Z,7.78
2023-04-23T22:28:39.021Z,6.65
2023-04-23T22:31:04.768Z,7.00
2023-04-23T22:33:30.614Z,6.95
2023-04-23T22:35:56.321Z,7.80
2023-04-23T22:38:22.148Z,6.10
2023-04-23T22:40:47.899Z,7.43
2023-04-23T22:43:13.643Z,5.70
2023-04-23T22:45:39.625Z,5.80
2023-04-23T22:48:05.425Z,6.63
2023-04-23T22:50:31.144Z,6.90
2023-04-23T22:52:56.859Z,5.75
2023-04-23T22:55:22.656Z,6.05
2023-04-23T22:57:48.403Z,8.10
2023-04-23T23:00:14.495Z,8.15
2023-04-23T23:02:40.881Z,6.43
2023-04-23T23:05:06.898Z,7.97
2023-04-23T23:07:32.685Z,5.90
2023-04-23T23:09:58.408Z,7.85
2023-04-23T23:12:24.146Z,5.25
2023-04-23T23:14:50.088Z,7.75
2023-04-23T23:17:15.822Z,5.47
2023-04-23T23:19:41.867Z,6.38
2023-04-23T23:22:07.961Z,8.05
2023-04-23T23:24:34.126Z,7.93
2023-04-23T23:27:00.733Z,6.00
2023-04-23T23:29:26.447Z,8.02
2023-04-23T23:31:52.280Z,6.70
2023-04-23T23:34:18.119Z,8.75
2023-04-23T23:36:44.659Z,9.27
2023-04-23T23:39:10.564Z,8.48
2023-04-23T23:41:36.269Z,6.40
2023-04-23T23:44:02.048Z,7.00
2023-04-23T23:46:27.985Z,8.15
2023-04-23T23:48:53.889Z,9.07
2023-04-23T23:51:19.613Z,11.68
2023-04-23T23:53:45.329Z,6.25
2023-04-23T23:56:11.107Z,6.88
2023-04-23T23:58:36.870Z,8.20
